sensor_id;sensor_type;location;lat;lon;timestamp;P1;durP1;ratioP1;P2;durP2;ratioP2
19595;SDS011;9945;46.010;8.946;2022-09-14T00:02:26;3.75;;;3.20;;
19595;SDS011;9945;46.010;8.946;2022-09-14T00:04:53;3.20;;;2.90;;
19595;SDS011;9945;46.010;8.946;2022-09-14T00:07:20;7.43;;;2.90;;
19595;SDS011;9945;46.010;8.946;2022-09-14T00:09:46;3.42;;;3.13;;
19595;SDS011;9945;46.010;8.946;2022-09-14T00:12:14;4.35;;;2.70;;
19595;SDS011;9945;46.010;8.946;2022-09-14T00:14:41;4.43;;;3.13;;
19595;SDS011;9945;46.010;8.946;2022-09-14T00:17:07;3.40;;;3.10;;
19595;SDS011;9945;46.010;8.946;2022-09-14T00:19:36;6.25;;;3.17;;
19595;SDS011;9945;46.010;8.946;2022-09-14T00:22:03;2.88;;;2.67;;
19595;SDS011;9945;46.010;8.946;2022-09-14T00:24:30;6.88;;;3.10;;
19595;SDS011;9945;46.010;8.946;2022-09-14T00:26:59;6.18;;;3.03;;
19595;SDS011;9945;46.010;8.946;2022-09-14T00:29:27;8.15;;;3.20;;
19595;SDS011;9945;46.010;8.946;2022-09-14T00:31:54;3.17;;;2.90;;
19595;SDS011;9945;46.010;8.946;2022-09-14T00:34:22;4.30;;;3.00;;
19595;SDS011;9945;46.010;8.946;2022-09-14T00:36:50;7.03;;;3.22;;
19595;SDS011;9945;46.010;8.946;2022-09-14T00:39:18;3.38;;;3.00;;
19595;SDS011;9945;46.010;8.946;2022-09-14T00:41:47;3.05;;;2.78;;
19595;SDS011;9945;46.010;8.946;2022-09-14T00:47:23;4.32;;;3.17;;
19595;SDS011;9945;46.010;8.946;2022-09-14T00:49:50;7.40;;;3.45;;
19595;SDS011;9945;46.010;8.946;2022-09-14T00:52:19;6.13;;;2.83;;
19595;SDS011;9945;46.010;8.946;2022-09-14T00:54:50;3.58;;;2.97;;
19595;SDS011;9945;46.010;8.946;2022-09-14T00:57:19;4.63;;;2.80;;
19595;SDS011;9945;46.010;8.946;2022-09-14T00:59:47;3.97;;;2.72;;
19595;SDS011;9945;46.010;8.946;2022-09-14T01:02:16;9.70;;;3.10;;
19595;SDS011;9945;46.010;8.946;2022-09-14T01:04:45;4.75;;;3.47;;
19595;SDS011;9945;46.010;8.946;2022-09-14T01:07:15;4.63;;;3.00;;
19595;SDS011;9945;46.010;8.946;2022-09-14T01:09:54;5.55;;;3.15;;
19595;SDS011;9945;46.010;8.946;2022-09-14T01:12:31;7.05;;;3.15;;
19595;SDS011;9945;46.010;8.946;2022-09-14T01:15:04;3.15;;;2.70;;
19595;SDS011;9945;46.010;8.946;2022-09-14T01:17:40;6.03;;;3.10;;
19595;SDS011;9945;46.010;8.946;2022-09-14T01:20:15;5.18;;;2.90;;
19595;SDS011;9945;46.010;8.946;2022-09-14T01:22:52;3.30;;;3.00;;
19595;SDS011;9945;46.010;8.946;2022-09-14T01:25:40;4.15;;;3.30;;
19595;SDS011;9945;46.010;8.946;2022-09-14T01:28:25;6.55;;;3.35;;
19595;SDS011;9945;46.010;8.946;2022-09-14T01:30:57;5.10;;;3.42;;
19595;SDS011;9945;46.010;8.946;2022-09-14T01:33:29;6.43;;;3.00;;
19595;SDS011;9945;46.010;8.946;2022-09-14T01:36:01;4.18;;;2.78;;
19595;SDS011;9945;46.010;8.946;2022-09-14T01:38:33;6.28;;;3.20;;
19595;SDS011;9945;46.010;8.946;2022-09-14T01:41:05;7.18;;;3.45;;
19595;SDS011;9945;46.010;8.946;2022-09-14T01:43:37;3.83;;;2.85;;
19595;SDS011;9945;46.010;8.946;2022-09-14T01:46:07;4.57;;;3.20;;
19595;SDS011;9945;46.010;8.946;2022-09-14T01:48:38;6.50;;;3.33;;
19595;SDS011;9945;46.010;8.946;2022-09-14T01:51:11;8.80;;;3.30;;
19595;SDS011;9945;46.010;8.946;2022-09-14T01:53:44;4.75;;;3.55;;
19595;SDS011;9945;46.010;8.946;2022-09-14T01:56:16;4.00;;;3.28;;
19595;SDS011;9945;46.010;8.946;2022-09-14T01:58:49;6.70;;;3.28;;
19595;SDS011;9945;46.010;8.946;2022-09-14T02:01:21;4.70;;;2.97;;
19595;SDS011;9945;46.010;8.946;2022-09-14T02:03:53;5.82;;;3.00;;
19595;SDS011;9945;46.010;8.946;2022-09-14T02:06:26;10.77;;;3.70;;
19595;SDS011;9945;46.010;8.946;2022-09-14T02:08:58;5.72;;;2.95;;
19595;SDS011;9945;46.010;8.946;2022-09-14T02:11:25;6.97;;;3.15;;
19595;SDS011;9945;46.010;8.946;2022-09-14T02:13:54;4.38;;;3.20;;
19595;SDS011;9945;46.010;8.946;2022-09-14T02:16:21;4.15;;;3.20;;
19595;SDS011;9945;46.010;8.946;2022-09-14T02:18:50;6.13;;;3.00;;
19595;SDS011;9945;46.010;8.946;2022-09-14T02:21:18;4.03;;;3.10;;
19595;SDS011;9945;46.010;8.946;2022-09-14T02:23:48;5.95;;;3.35;;
19595;SDS011;9945;46.010;8.946;2022-09-14T02:26:15;5.97;;;3.45;;
19595;SDS011;9945;46.010;8.946;2022-09-14T02:28:44;5.43;;;3.63;;
19595;SDS011;9945;46.010;8.946;2022-09-14T02:31:15;3.20;;;2.90;;
19595;SDS011;9945;46.010;8.946;2022-09-14T02:33:51;4.68;;;3.35;;
19595;SDS011;9945;46.010;8.946;2022-09-14T02:36:27;4.63;;;3.45;;
19595;SDS011;9945;46.010;8.946;2022-09-14T02:39:05;5.90;;;3.00;;
19595;SDS011;9945;46.010;8.946;2022-09-14T02:41:41;3.60;;;3.15;;
19595;SDS011;9945;46.010;8.946;2022-09-14T02:44:17;4.18;;;3.30;;
19595;SDS011;9945;46.010;8.946;2022-09-14T02:46:52;3.65;;;3.35;;
19595;SDS011;9945;46.010;8.946;2022-09-14T02:49:24;4.35;;;3.03;;
19595;SDS011;9945;46.010;8.946;2022-09-14T02:51:56;3.80;;;3.22;;
19595;SDS011;9945;46.010;8.946;2022-09-14T02:54:29;5.35;;;3.15;;
19595;SDS011;9945;46.010;8.946;2022-09-14T02:57:02;5.30;;;3.17;;
19595;SDS011;9945;46.010;8.946;2022-09-14T02:59:29;6.40;;;3.38;;
19595;SDS011;9945;46.010;8.946;2022-09-14T03:01:58;5.03;;;3.40;;
19595;SDS011;9945;46.010;8.946;2022-09-14T03:04:25;3.33;;;3.00;;
19595;SDS011;9945;46.010;8.946;2022-09-14T03:06:53;3.30;;;3.00;;
19595;SDS011;9945;46.010;8.946;2022-09-14T03:09:20;3.40;;;3.10;;
19595;SDS011;9945;46.010;8.946;2022-09-14T03:11:46;5.68;;;3.10;;
19595;SDS011;9945;46.010;8.946;2022-09-14T03:14:13;4.43;;;3.22;;
19595;SDS011;9945;46.010;8.946;2022-09-14T03:16:40;4.32;;;3.50;;
19595;SDS011;9945;46.010;8.946;2022-09-14T03:19:09;5.28;;;3.08;;
19595;SDS011;9945;46.010;8.946;2022-09-14T03:21:36;7.00;;;3.55;;
19595;SDS011;9945;46.010;8.946;2022-09-14T03:24:04;7.15;;;3.13;;
19595;SDS011;9945;46.010;8.946;2022-09-14T03:26:31;5.50;;;3.30;;
19595;SDS011;9945;46.010;8.946;2022-09-14T03:29:01;9.60;;;3.60;;
19595;SDS011;9945;46.010;8.946;2022-09-14T03:31:29;4.15;;;3.28;;
19595;SDS011;9945;46.010;8.946;2022-09-14T03:33:57;7.35;;;3.28;;
19595;SDS011;9945;46.010;8.946;2022-09-14T03:36:27;5.78;;;3.53;;
19595;SDS011;9945;46.010;8.946;2022-09-14T03:38:56;5.35;;;3.15;;
19595;SDS011;9945;46.010;8.946;2022-09-14T03:41:26;4.80;;;3.10;;
19595;SDS011;9945;46.010;8.946;2022-09-14T03:43:53;5.57;;;3.55;;
19595;SDS011;9945;46.010;8.946;2022-09-14T03:46:21;3.38;;;3.08;;
19595;SDS011;9945;46.010;8.946;2022-09-14T03:48:49;7.03;;;3.80;;
19595;SDS011;9945;46.010;8.946;2022-09-14T03:51:17;4.70;;;3.53;;
19595;SDS011;9945;46.010;8.946;2022-09-14T03:53:45;4.30;;;3.15;;
19595;SDS011;9945;46.010;8.946;2022-09-14T03:56:13;4.90;;;3.38;;
19595;SDS011;9945;46.010;8.946;2022-09-14T03:58:42;3.63;;;3.33;;
19595;SDS011;9945;46.010;8.946;2022-09-14T04:01:12;5.72;;;3.55;;
19595;SDS011;9945;46.010;8.946;2022-09-14T04:03:42;5.22;;;3.42;;
19595;SDS011;9945;46.010;8.946;2022-09-14T04:06:09;3.50;;;3.20;;
19595;SDS011;9945;46.010;8.946;2022-09-14T04:08:37;7.95;;;3.38;;
19595;SDS011;9945;46.010;8.946;2022-09-14T04:11:07;4.07;;;3.45;;
19595;SDS011;9945;46.010;8.946;2022-09-14T04:13:36;4.05;;;3.05;;
19595;SDS011;9945;46.010;8.946;2022-09-14T04:16:03;6.05;;;3.05;;
19595;SDS011;9945;46.010;8.946;2022-09-14T04:18:30;5.97;;;3.33;;
19595;SDS011;9945;46.010;8.946;2022-09-14T04:20:58;6.65;;;3.50;;
19595;SDS011;9945;46.010;8.946;2022-09-14T04:23:26;7.75;;;3.45;;
19595;SDS011;9945;46.010;8.946;2022-09-14T04:25:54;10.93;;;3.55;;
19595;SDS011;9945;46.010;8.946;2022-09-14T04:28:22;4.03;;;3.63;;
19595;SDS011;9945;46.010;8.946;2022-09-14T04:30:56;6.47;;;3.63;;
19595;SDS011;9945;46.010;8.946;2022-09-14T04:33:24;7.07;;;3.50;;
19595;SDS011;9945;46.010;8.946;2022-09-14T04:35:55;4.50;;;3.40;;
19595;SDS011;9945;46.010;8.946;2022-09-14T04:38:23;4.22;;;3.03;;
19595;SDS011;9945;46.010;8.946;2022-09-14T04:40:50;4.53;;;3.53;;
19595;SDS011;9945;46.010;8.946;2022-09-14T04:43:17;3.70;;;3.38;;
19595;SDS011;9945;46.010;8.946;2022-09-14T04:45:45;4.88;;;3.65;;
19595;SDS011;9945;46.010;8.946;2022-09-14T04:48:12;3.60;;;3.30;;
19595;SDS011;9945;46.010;8.946;2022-09-14T04:50:39;3.95;;;3.17;;
19595;SDS011;9945;46.010;8.946;2022-09-14T04:53:06;3.95;;;3.30;;
19595;SDS011;9945;46.010;8.946;2022-09-14T04:55:32;10.25;;;3.88;;
19595;SDS011;9945;46.010;8.946;2022-09-14T04:57:59;9.63;;;3.65;;
19595;SDS011;9945;46.010;8.946;2022-09-14T05:00:27;5.53;;;3.97;;
19595;SDS011;9945;46.010;8.946;2022-09-14T05:02:55;9.40;;;4.00;;
19595;SDS011;9945;46.010;8.946;2022-09-14T05:05:22;6.10;;;3.83;;
19595;SDS011;9945;46.010;8.946;2022-09-14T05:07:49;6.60;;;3.67;;
19595;SDS011;9945;46.010;8.946;2022-09-14T05:10:16;7.43;;;4.35;;
19595;SDS011;9945;46.010;8.946;2022-09-14T05:12:43;7.15;;;3.97;;
19595;SDS011;9945;46.010;8.946;2022-09-14T05:15:10;10.13;;;3.65;;
19595;SDS011;9945;46.010;8.946;2022-09-14T05:17:37;6.15;;;3.90;;
19595;SDS011;9945;46.010;8.946;2022-09-14T05:20:06;10.80;;;3.78;;
19595;SDS011;9945;46.010;8.946;2022-09-14T05:22:36;8.75;;;4.30;;
19595;SDS011;9945;46.010;8.946;2022-09-14T05:25:03;10.57;;;3.80;;
19595;SDS011;9945;46.010;8.946;2022-09-14T05:27:31;3.85;;;3.50;;
19595;SDS011;9945;46.010;8.946;2022-09-14T05:29:58;5.70;;;4.05;;
19595;SDS011;9945;46.010;8.946;2022-09-14T05:32:25;7.50;;;4.22;;
19595;SDS011;9945;46.010;8.946;2022-09-14T05:34:52;9.70;;;3.92;;
19595;SDS011;9945;46.010;8.946;2022-09-14T05:37:20;7.15;;;3.90;;
19595;SDS011;9945;46.010;8.946;2022-09-14T05:39:47;9.02;;;4.78;;
19595;SDS011;9945;46.010;8.946;2022-09-14T05:42:14;5.60;;;3.90;;
19595;SDS011;9945;46.010;8.946;2022-09-14T05:44:41;7.28;;;3.50;;
19595;SDS011;9945;46.010;8.946;2022-09-14T05:47:07;3.75;;;3.40;;
19595;SDS011;9945;46.010;8.946;2022-09-14T05:49:34;5.13;;;3.45;;
19595;SDS011;9945;46.010;8.946;2022-09-14T05:52:01;5.00;;;3.70;;
19595;SDS011;9945;46.010;8.946;2022-09-14T05:54:29;5.50;;;3.40;;
19595;SDS011;9945;46.010;8.946;2022-09-14T05:56:56;6.28;;;3.50;;
19595;SDS011;9945;46.010;8.946;2022-09-14T05:59:23;57.83;;;28.35;;
19595;SDS011;9945;46.010;8.946;2022-09-14T06:01:50;75.78;;;25.83;;
19595;SDS011;9945;46.010;8.946;2022-09-14T06:04:17;17.13;;;8.18;;
19595;SDS011;9945;46.010;8.946;2022-09-14T06:06:44;11.23;;;6.03;;
19595;SDS011;9945;46.010;8.946;2022-09-14T06:09:11;17.40;;;5.10;;
19595;SDS011;9945;46.010;8.946;2022-09-14T06:11:39;31.75;;;9.48;;
19595;SDS011;9945;46.010;8.946;2022-09-14T06:14:06;16.20;;;8.00;;
19595;SDS011;9945;46.010;8.946;2022-09-14T06:16:33;10.32;;;4.60;;
19595;SDS011;9945;46.010;8.946;2022-09-14T06:19:00;7.28;;;4.65;;
19595;SDS011;9945;46.010;8.946;2022-09-14T06:21:28;24.25;;;8.52;;
19595;SDS011;9945;46.010;8.946;2022-09-14T06:23:56;57.38;;;16.50;;
19595;SDS011;9945;46.010;8.946;2022-09-14T06:26:24;28.73;;;9.13;;
19595;SDS011;9945;46.010;8.946;2022-09-14T06:28:52;13.95;;;5.03;;
19595;SDS011;9945;46.010;8.946;2022-09-14T06:31:19;8.93;;;3.83;;
19595;SDS011;9945;46.010;8.946;2022-09-14T06:33:47;7.18;;;3.75;;
19595;SDS011;9945;46.010;8.946;2022-09-14T06:36:16;5.47;;;3.83;;
19595;SDS011;9945;46.010;8.946;2022-09-14T06:38:45;7.55;;;4.18;;
19595;SDS011;9945;46.010;8.946;2022-09-14T06:41:14;8.13;;;4.22;;
19595;SDS011;9945;46.010;8.946;2022-09-14T06:43:43;6.50;;;3.92;;
19595;SDS011;9945;46.010;8.946;2022-09-14T06:46:12;6.90;;;3.75;;
19595;SDS011;9945;46.010;8.946;2022-09-14T06:48:44;10.13;;;3.75;;
19595;SDS011;9945;46.010;8.946;2022-09-14T06:51:13;12.73;;;3.92;;
19595;SDS011;9945;46.010;8.946;2022-09-14T06:53:41;7.75;;;3.63;;
19595;SDS011;9945;46.010;8.946;2022-09-14T06:56:08;8.88;;;3.90;;
19595;SDS011;9945;46.010;8.946;2022-09-14T06:58:35;5.05;;;3.70;;
19595;SDS011;9945;46.010;8.946;2022-09-14T07:01:02;9.48;;;3.53;;
19595;SDS011;9945;46.010;8.946;2022-09-14T07:03:33;6.25;;;3.63;;
19595;SDS011;9945;46.010;8.946;2022-09-14T07:06:02;8.50;;;3.13;;
19595;SDS011;9945;46.010;8.946;2022-09-14T07:08:30;6.95;;;3.28;;
19595;SDS011;9945;46.010;8.946;2022-09-14T07:10:58;11.27;;;3.75;;
19595;SDS011;9945;46.010;8.946;2022-09-14T07:13:26;4.68;;;3.70;;
19595;SDS011;9945;46.010;8.946;2022-09-14T07:15:54;6.03;;;3.80;;
19595;SDS011;9945;46.010;8.946;2022-09-14T07:18:21;13.05;;;4.07;;
19595;SDS011;9945;46.010;8.946;2022-09-14T07:20:53;12.57;;;3.70;;
19595;SDS011;9945;46.010;8.946;2022-09-14T07:23:20;8.20;;;4.53;;
19595;SDS011;9945;46.010;8.946;2022-09-14T07:25:47;10.77;;;3.58;;
19595;SDS011;9945;46.010;8.946;2022-09-14T07:28:25;20.38;;;5.30;;
19595;SDS011;9945;46.010;8.946;2022-09-14T07:30:52;16.25;;;4.68;;
19595;SDS011;9945;46.010;8.946;2022-09-14T07:33:19;10.57;;;4.53;;
19595;SDS011;9945;46.010;8.946;2022-09-14T07:35:46;7.85;;;4.50;;
19595;SDS011;9945;46.010;8.946;2022-09-14T07:38:14;7.45;;;4.35;;
19595;SDS011;9945;46.010;8.946;2022-09-14T07:40:41;6.35;;;4.00;;
19595;SDS011;9945;46.010;8.946;2022-09-14T07:43:08;6.07;;;4.35;;
19595;SDS011;9945;46.010;8.946;2022-09-14T07:45:35;6.63;;;4.30;;
19595;SDS011;9945;46.010;8.946;2022-09-14T07:48:03;12.32;;;4.60;;
19595;SDS011;9945;46.010;8.946;2022-09-14T07:50:30;16.52;;;4.70;;
19595;SDS011;9945;46.010;8.946;2022-09-14T07:52:57;29.02;;;7.10;;
19595;SDS011;9945;46.010;8.946;2022-09-14T07:55:25;9.10;;;4.20;;
19595;SDS011;9945;46.010;8.946;2022-09-14T07:57:53;6.85;;;3.92;;
19595;SDS011;9945;46.010;8.946;2022-09-14T08:00:20;16.48;;;4.60;;
19595;SDS011;9945;46.010;8.946;2022-09-14T08:02:50;11.40;;;4.70;;
19595;SDS011;9945;46.010;8.946;2022-09-14T08:05:18;46.30;;;6.00;;
19595;SDS011;9945;46.010;8.946;2022-09-14T08:07:45;20.15;;;4.97;;
19595;SDS011;9945;46.010;8.946;2022-09-14T08:10:12;25.67;;;4.80;;
19595;SDS011;9945;46.010;8.946;2022-09-14T08:12:40;20.65;;;5.55;;
19595;SDS011;9945;46.010;8.946;2022-09-14T08:15:07;7.47;;;3.40;;
19595;SDS011;9945;46.010;8.946;2022-09-14T08:17:35;11.40;;;3.47;;
19595;SDS011;9945;46.010;8.946;2022-09-14T08:20:02;8.73;;;3.33;;
19595;SDS011;9945;46.010;8.946;2022-09-14T08:22:30;6.32;;;3.47;;
19595;SDS011;9945;46.010;8.946;2022-09-14T08:24:57;5.82;;;3.33;;
19595;SDS011;9945;46.010;8.946;2022-09-14T08:27:24;5.72;;;3.67;;
19595;SDS011;9945;46.010;8.946;2022-09-14T08:29:52;6.65;;;3.50;;
19595;SDS011;9945;46.010;8.946;2022-09-14T08:32:19;6.18;;;3.70;;
19595;SDS011;9945;46.010;8.946;2022-09-14T08:34:46;10.85;;;3.50;;
19595;SDS011;9945;46.010;8.946;2022-09-14T08:37:13;13.25;;;3.58;;
19595;SDS011;9945;46.010;8.946;2022-09-14T08:39:40;10.73;;;4.20;;
19595;SDS011;9945;46.010;8.946;2022-09-14T08:42:08;6.07;;;3.50;;
19595;SDS011;9945;46.010;8.946;2022-09-14T08:44:41;4.88;;;3.38;;
19595;SDS011;9945;46.010;8.946;2022-09-14T08:47:12;7.88;;;3.80;;
19595;SDS011;9945;46.010;8.946;2022-09-14T08:49:44;3.65;;;3.30;;
19595;SDS011;9945;46.010;8.946;2022-09-14T08:52:14;10.18;;;3.75;;
19595;SDS011;9945;46.010;8.946;2022-09-14T08:54:48;3.70;;;2.85;;
19595;SDS011;9945;46.010;8.946;2022-09-14T08:57:21;7.25;;;3.03;;
19595;SDS011;9945;46.010;8.946;2022-09-14T08:59:54;4.70;;;3.30;;
19595;SDS011;9945;46.010;8.946;2022-09-14T09:03:02;4.60;;;3.72;;
19595;SDS011;9945;46.010;8.946;2022-09-14T09:06:02;4.93;;;3.72;;
19595;SDS011;9945;46.010;8.946;2022-09-14T09:08:38;8.80;;;4.28;;
19595;SDS011;9945;46.010;8.946;2022-09-14T09:11:13;9.88;;;4.38;;
19595;SDS011;9945;46.010;8.946;2022-09-14T09:13:44;4.88;;;3.60;;
19595;SDS011;9945;46.010;8.946;2022-09-14T09:16:15;6.75;;;3.53;;
19595;SDS011;9945;46.010;8.946;2022-09-14T09:18:48;6.15;;;4.10;;
19595;SDS011;9945;46.010;8.946;2022-09-14T09:21:19;5.93;;;3.35;;
19595;SDS011;9945;46.010;8.946;2022-09-14T09:23:49;5.40;;;3.83;;
19595;SDS011;9945;46.010;8.946;2022-09-14T09:26:20;8.52;;;3.33;;
19595;SDS011;9945;46.010;8.946;2022-09-14T09:28:51;6.28;;;3.75;;
19595;SDS011;9945;46.010;8.946;2022-09-14T09:31:21;5.07;;;4.10;;
19595;SDS011;9945;46.010;8.946;2022-09-14T09:33:54;4.55;;;3.72;;
19595;SDS011;9945;46.010;8.946;2022-09-14T09:36:21;5.60;;;3.70;;
19595;SDS011;9945;46.010;8.946;2022-09-14T09:38:48;4.53;;;3.63;;
19595;SDS011;9945;46.010;8.946;2022-09-14T09:41:16;4.68;;;3.40;;
19595;SDS011;9945;46.010;8.946;2022-09-14T09:43:56;3.88;;;3.35;;
19595;SDS011;9945;46.010;8.946;2022-09-14T09:46:26;9.05;;;3.80;;
19595;SDS011;9945;46.010;8.946;2022-09-14T09:48:55;5.72;;;3.38;;
19595;SDS011;9945;46.010;8.946;2022-09-14T09:51:26;4.82;;;3.40;;
19595;SDS011;9945;46.010;8.946;2022-09-14T09:53:56;4.53;;;3.08;;
19595;SDS011;9945;46.010;8.946;2022-09-14T09:56:29;4.07;;;3.30;;
19595;SDS011;9945;46.010;8.946;2022-09-14T09:58:58;7.38;;;3.83;;
19595;SDS011;9945;46.010;8.946;2022-09-14T10:01:26;7.13;;;3.28;;
19595;SDS011;9945;46.010;8.946;2022-09-14T10:04:03;3.78;;;3.03;;
19595;SDS011;9945;46.010;8.946;2022-09-14T10:06:43;4.80;;;2.97;;
19595;SDS011;9945;46.010;8.946;2022-09-14T10:09:12;7.93;;;3.10;;
19595;SDS011;9945;46.010;8.946;2022-09-14T10:11:41;6.70;;;3.20;;
19595;SDS011;9945;46.010;8.946;2022-09-14T10:14:19;13.52;;;3.55;;
19595;SDS011;9945;46.010;8.946;2022-09-14T10:17:03;9.77;;;3.90;;
19595;SDS011;9945;46.010;8.946;2022-09-14T10:19:33;4.15;;;3.50;;
19595;SDS011;9945;46.010;8.946;2022-09-14T10:22:01;6.13;;;3.65;;
19595;SDS011;9945;46.010;8.946;2022-09-14T10:24:53;11.98;;;3.28;;
19595;SDS011;9945;46.010;8.946;2022-09-14T10:27:33;4.78;;;2.78;;
19595;SDS011;9945;46.010;8.946;2022-09-14T10:30:04;5.82;;;3.22;;
19595;SDS011;9945;46.010;8.946;2022-09-14T10:32:36;7.57;;;3.08;;
19595;SDS011;9945;46.010;8.946;2022-09-14T10:35:11;7.97;;;3.15;;
19595;SDS011;9945;46.010;8.946;2022-09-14T10:37:43;5.13;;;3.75;;
19595;SDS011;9945;46.010;8.946;2022-09-14T10:40:23;9.30;;;3.30;;
19595;SDS011;9945;46.010;8.946;2022-09-14T10:43:00;5.80;;;3.30;;
19595;SDS011;9945;46.010;8.946;2022-09-14T10:45:35;3.28;;;3.08;;
19595;SDS011;9945;46.010;8.946;2022-09-14T10:48:13;5.75;;;3.50;;
19595;SDS011;9945;46.010;8.946;2022-09-14T10:51:03;5.03;;;3.38;;
19595;SDS011;9945;46.010;8.946;2022-09-14T10:53:44;9.95;;;3.67;;
19595;SDS011;9945;46.010;8.946;2022-09-14T10:56:20;7.35;;;3.53;;
19595;SDS011;9945;46.010;8.946;2022-09-14T10:58:54;9.82;;;2.88;;
19595;SDS011;9945;46.010;8.946;2022-09-14T11:01:46;3.58;;;2.65;;
19595;SDS011;9945;46.010;8.946;2022-09-14T11:07:26;5.13;;;3.10;;
19595;SDS011;9945;46.010;8.946;2022-09-14T11:09:59;5.68;;;2.95;;
19595;SDS011;9945;46.010;8.946;2022-09-14T11:12:39;4.53;;;3.08;;
19595;SDS011;9945;46.010;8.946;2022-09-14T11:15:14;3.17;;;2.30;;
19595;SDS011;9945;46.010;8.946;2022-09-14T11:17:55;6.28;;;2.40;;
19595;SDS011;9945;46.010;8.946;2022-09-14T11:20:34;2.92;;;2.40;;
19595;SDS011;9945;46.010;8.946;2022-09-14T11:23:16;7.60;;;2.95;;
19595;SDS011;9945;46.010;8.946;2022-09-14T11:25:52;4.88;;;2.60;;
19595;SDS011;9945;46.010;8.946;2022-09-14T11:28:24;8.57;;;2.75;;
19595;SDS011;9945;46.010;8.946;2022-09-14T11:30:56;152.60;;;12.38;;
19595;SDS011;9945;46.010;8.946;2022-09-14T11:33:30;223.88;;;13.57;;
19595;SDS011;9945;46.010;8.946;2022-09-14T11:36:02;56.88;;;5.85;;
19595;SDS011;9945;46.010;8.946;2022-09-14T11:38:35;31.90;;;3.85;;
19595;SDS011;9945;46.010;8.946;2022-09-14T11:41:14;9.23;;;3.25;;
19595;SDS011;9945;46.010;8.946;2022-09-14T11:43:48;35.42;;;4.80;;
19595;SDS011;9945;46.010;8.946;2022-09-14T11:46:18;16.42;;;3.30;;
19595;SDS011;9945;46.010;8.946;2022-09-14T11:48:52;4.78;;;3.00;;
19595;SDS011;9945;46.010;8.946;2022-09-14T11:51:27;7.63;;;2.95;;
19595;SDS011;9945;46.010;8.946;2022-09-14T11:53:59;4.53;;;2.30;;
19595;SDS011;9945;46.010;8.946;2022-09-14T11:56:27;5.97;;;2.60;;
19595;SDS011;9945;46.010;8.946;2022-09-14T11:58:57;3.47;;;2.10;;
19595;SDS011;9945;46.010;8.946;2022-09-14T12:01:28;2.50;;;2.30;;
19595;SDS011;9945;46.010;8.946;2022-09-14T12:04:04;5.75;;;2.15;;
19595;SDS011;9945;46.010;8.946;2022-09-14T12:06:44;5.50;;;2.53;;
19595;SDS011;9945;46.010;8.946;2022-09-14T12:12:31;5.07;;;2.30;;
19595;SDS011;9945;46.010;8.946;2022-09-14T12:15:16;4.55;;;2.45;;
19595;SDS011;9945;46.010;8.946;2022-09-14T12:17:47;3.42;;;2.85;;
19595;SDS011;9945;46.010;8.946;2022-09-14T12:23:18;4.38;;;2.42;;
19595;SDS011;9945;46.010;8.946;2022-09-14T12:25:55;6.93;;;2.72;;
19595;SDS011;9945;46.010;8.946;2022-09-14T12:28:26;3.65;;;2.53;;
19595;SDS011;9945;46.010;8.946;2022-09-14T12:31:07;3.75;;;2.72;;
19595;SDS011;9945;46.010;8.946;2022-09-14T12:33:40;3.58;;;2.20;;
19595;SDS011;9945;46.010;8.946;2022-09-14T12:39:24;7.32;;;2.28;;
19595;SDS011;9945;46.010;8.946;2022-09-14T12:44:56;4.10;;;2.40;;
19595;SDS011;9945;46.010;8.946;2022-09-14T12:50:23;4.07;;;2.63;;
19595;SDS011;9945;46.010;8.946;2022-09-14T12:53:05;4.25;;;2.60;;
19595;SDS011;9945;46.010;8.946;2022-09-14T12:55:46;5.43;;;2.20;;
19595;SDS011;9945;46.010;8.946;2022-09-14T12:58:36;4.75;;;2.40;;
19595;SDS011;9945;46.010;8.946;2022-09-14T13:01:20;3.42;;;2.45;;
19595;SDS011;9945;46.010;8.946;2022-09-14T13:03:53;4.25;;;2.42;;
19595;SDS011;9945;46.010;8.946;2022-09-14T13:06:22;3.38;;;2.22;;
19595;SDS011;9945;46.010;8.946;2022-09-14T13:08:52;5.72;;;2.42;;
19595;SDS011;9945;46.010;8.946;2022-09-14T13:11:23;6.07;;;2.28;;
19595;SDS011;9945;46.010;8.946;2022-09-14T13:13:55;2.88;;;2.28;;
19595;SDS011;9945;46.010;8.946;2022-09-14T13:16:27;3.85;;;2.25;;
19595;SDS011;9945;46.010;8.946;2022-09-14T13:19:02;2.92;;;2.05;;
19595;SDS011;9945;46.010;8.946;2022-09-14T13:21:31;4.57;;;1.83;;
19595;SDS011;9945;46.010;8.946;2022-09-14T13:23:58;4.03;;;2.50;;
19595;SDS011;9945;46.010;8.946;2022-09-14T13:26:25;3.33;;;2.03;;
19595;SDS011;9945;46.010;8.946;2022-09-14T13:28:55;5.07;;;2.90;;
19595;SDS011;9945;46.010;8.946;2022-09-14T13:31:26;5.05;;;2.55;;
19595;SDS011;9945;46.010;8.946;2022-09-14T13:33:56;2.65;;;2.00;;
19595;SDS011;9945;46.010;8.946;2022-09-14T13:36:25;5.07;;;2.20;;
19595;SDS011;9945;46.010;8.946;2022-09-14T13:38:54;4.10;;;2.28;;
19595;SDS011;9945;46.010;8.946;2022-09-14T13:41:25;6.45;;;2.42;;
19595;SDS011;9945;46.010;8.946;2022-09-14T13:43:54;6.35;;;2.50;;
19595;SDS011;9945;46.010;8.946;2022-09-14T13:46:24;12.32;;;2.85;;
19595;SDS011;9945;46.010;8.946;2022-09-14T13:48:52;8.52;;;2.67;;
19595;SDS011;9945;46.010;8.946;2022-09-14T13:51:21;5.93;;;2.20;;
19595;SDS011;9945;46.010;8.946;2022-09-14T13:53:50;6.88;;;2.45;;
19595;SDS011;9945;46.010;8.946;2022-09-14T13:56:25;16.73;;;3.58;;
19595;SDS011;9945;46.010;8.946;2022-09-14T14:01:49;3.97;;;3.05;;
19595;SDS011;9945;46.010;8.946;2022-09-14T14:04:26;9.85;;;2.72;;
19595;SDS011;9945;46.010;8.946;2022-09-14T14:06:58;2.63;;;2.13;;
19595;SDS011;9945;46.010;8.946;2022-09-14T14:09:39;4.10;;;2.67;;
19595;SDS011;9945;46.010;8.946;2022-09-14T14:12:08;3.20;;;2.35;;
19595;SDS011;9945;46.010;8.946;2022-09-14T14:14:38;4.65;;;2.38;;
19595;SDS011;9945;46.010;8.946;2022-09-14T14:23:00;2.65;;;2.00;;
19595;SDS011;9945;46.010;8.946;2022-09-14T14:25:46;3.92;;;2.25;;
19595;SDS011;9945;46.010;8.946;2022-09-14T14:28:21;8.20;;;2.70;;
19595;SDS011;9945;46.010;8.946;2022-09-14T14:30:51;8.27;;;2.33;;
19595;SDS011;9945;46.010;8.946;2022-09-14T14:33:18;3.15;;;2.17;;
19595;SDS011;9945;46.010;8.946;2022-09-14T14:35:47;5.18;;;2.10;;
19595;SDS011;9945;46.010;8.946;2022-09-14T14:38:17;10.48;;;2.67;;
19595;SDS011;9945;46.010;8.946;2022-09-14T14:40:44;5.35;;;2.30;;
19595;SDS011;9945;46.010;8.946;2022-09-14T14:43:12;7.03;;;2.47;;
19595;SDS011;9945;46.010;8.946;2022-09-14T14:45:43;4.55;;;2.70;;
19595;SDS011;9945;46.010;8.946;2022-09-14T14:48:12;5.95;;;2.60;;
19595;SDS011;9945;46.010;8.946;2022-09-14T14:50:39;2.70;;;2.35;;
19595;SDS011;9945;46.010;8.946;2022-09-14T14:53:06;4.30;;;2.03;;
19595;SDS011;9945;46.010;8.946;2022-09-14T14:55:34;6.32;;;2.45;;
19595;SDS011;9945;46.010;8.946;2022-09-14T14:58:03;6.72;;;2.30;;
19595;SDS011;9945;46.010;8.946;2022-09-14T15:00:32;3.67;;;2.42;;
19595;SDS011;9945;46.010;8.946;2022-09-14T15:03:00;6.85;;;2.28;;
19595;SDS011;9945;46.010;8.946;2022-09-14T15:05:29;3.40;;;2.05;;
19595;SDS011;9945;46.010;8.946;2022-09-14T15:07:56;3.28;;;2.60;;
19595;SDS011;9945;46.010;8.946;2022-09-14T15:10:24;5.55;;;2.35;;
19595;SDS011;9945;46.010;8.946;2022-09-14T15:12:52;6.75;;;3.05;;
19595;SDS011;9945;46.010;8.946;2022-09-14T15:15:20;4.43;;;2.55;;
19595;SDS011;9945;46.010;8.946;2022-09-14T15:17:49;6.30;;;2.40;;
19595;SDS011;9945;46.010;8.946;2022-09-14T15:20:16;6.03;;;2.72;;
19595;SDS011;9945;46.010;8.946;2022-09-14T15:22:45;7.43;;;2.67;;
19595;SDS011;9945;46.010;8.946;2022-09-14T15:25:13;5.15;;;3.17;;
19595;SDS011;9945;46.010;8.946;2022-09-14T15:27:41;8.82;;;2.55;;
19595;SDS011;9945;46.010;8.946;2022-09-14T15:30:09;4.60;;;2.20;;
19595;SDS011;9945;46.010;8.946;2022-09-14T15:32:37;9.30;;;2.70;;
19595;SDS011;9945;46.010;8.946;2022-09-14T15:35:05;5.28;;;2.47;;
19595;SDS011;9945;46.010;8.946;2022-09-14T15:37:33;2.88;;;2.55;;
19595;SDS011;9945;46.010;8.946;2022-09-14T15:40:05;6.35;;;2.95;;
19595;SDS011;9945;46.010;8.946;2022-09-14T15:42:32;4.65;;;2.33;;
19595;SDS011;9945;46.010;8.946;2022-09-14T15:45:00;4.88;;;2.25;;
19595;SDS011;9945;46.010;8.946;2022-09-14T15:47:28;5.22;;;2.17;;
19595;SDS011;9945;46.010;8.946;2022-09-14T15:49:54;4.43;;;2.30;;
19595;SDS011;9945;46.010;8.946;2022-09-14T15:52:21;3.55;;;2.22;;